Time;durP1;ratioP1;P1;durP2;ratioP2;P2;SDS_P1;SDS_P2;PMS_P1;PMS_P2;Temp;Humidity;BMP_temperature;BMP_pressure;BME280_temperature;BME280_humidity;BME280_pressure;Samples;Min_cycle;Max_cycle;Signal;HPM_P1;HPM_P2
2022/06/12 00:02:22;;;;;;;4.00;1.67;;;;;;;24.06;41.76;102028.38;5018077;28;20220;-66
2022/06/12 00:04:47;;;;;;;4.85;1.70;;;;;;;23.98;42.07;102023.81;5017928;28;20029;-67
2022/06/12 00:07:13;;;;;;;6.85;2.60;;;;;;;23.95;41.68;102028.81;5017794;28;20036;-67
2022/06/12 00:09:38;;;;;;;8.45;2.20;;;;;;;23.89;42.64;102029.56;5017956;28;20380;-67
2022/06/12 00:12:05;;;;;;;7.07;1.73;;;;;;;23.83;42.13;102025.69;5017795;28;20032;-66
2022/06/12 00:14:30;;;;;;;5.55;1.75;;;;;;;23.75;42.33;102034.84;5018217;28;20395;-67
2022/06/12 00:16:56;;;;;;;5.97;2.00;;;;;;;23.70;42.38;102034.53;5016808;28;20021;-67
2022/06/12 00:19:21;;;;;;;11.95;1.75;;;;;;;23.64;42.87;102024.34;5017854;28;20022;-67
2022/06/12 00:21:47;;;;;;;7.13;2.67;;;;;;;23.59;42.65;102026.75;5017458;28;20423;-67
2022/06/12 00:24:16;;;;;;;13.00;1.92;;;;;;;23.56;42.42;102032.59;5017588;28;20034;-66
2022/06/12 00:26:44;;;;;;;6.70;2.08;;;;;;;23.53;42.23;102029.41;5018037;28;20028;-67
2022/06/12 00:29:22;;;;;;;7.25;2.20;;;;;;;23.48;43.20;102027.22;5016632;28;20026;-66
2022/06/12 00:31:52;;;;;;;4.75;1.80;;;;;;;23.44;42.51;102028.63;5017667;28;20437;-67
2022/06/12 00:34:19;;;;;;;4.22;1.85;;;;;;;23.41;42.44;102026.25;5017445;28;20022;-66
2022/06/12 00:36:44;;;;;;;11.57;3.28;;;;;;;23.37;42.97;102030.34;5017565;28;20022;-66
2022/06/12 00:39:10;;;;;;;6.80;3.30;;;;;;;23.32;42.57;102032.78;5017500;28;20030;-67
2022/06/12 00:41:38;;;;;;;10.80;2.13;;;;;;;23.27;43.07;102034.38;5017293;28;20490;-66
2022/06/12 00:44:03;;;;;;;8.52;2.00;;;;;;;23.22;43.08;102031.34;5017067;28;20045;-66
2022/06/12 00:46:37;;;;;;;4.50;2.40;;;;;;;23.20;43.34;102034.22;5017401;28;20030;-66
2022/06/12 00:49:12;;;;;;;3.80;1.85;;;;;;;23.19;43.82;102035.28;5017533;28;20052;-66
2022/06/12 00:51:38;;;;;;;12.13;2.20;;;;;;;23.17;43.30;102037.38;5016098;28;20029;-66
2022/06/12 00:54:04;;;;;;;5.15;1.80;;;;;;;23.16;42.94;102032.91;5016177;28;20087;-66
2022/06/12 00:56:33;;;;;;;6.90;2.20;;;;;;;23.12;43.97;102040.63;5016058;28;20026;-66
2022/06/12 00:59:04;;;;;;;6.03;2.63;;;;;;;23.08;43.38;102035.72;5016054;28;20029;-67
2022/06/12 01:01:34;;;;;;;8.57;2.17;;;;;;;23.03;44.18;102038.97;5015650;28;20046;-67
2022/06/12 01:06:46;;;;;;;7.03;2.05;;;;;;;22.90;43.81;102026.94;5016992;28;20036;-66
2022/06/12 01:09:15;;;;;;;7.60;1.90;;;;;;;22.89;43.94;102037.00;5016770;28;20022;-67
2022/06/12 01:11:44;;;;;;;6.50;2.35;;;;;;;22.83;43.25;102034.16;5015642;28;20018;-67
2022/06/12 01:14:13;;;;;;;8.07;1.77;;;;;;;22.80;43.33;102037.25;5016660;28;20510;-66
2022/06/12 01:16:44;;;;;;;7.70;1.60;;;;;;;22.76;44.10;102038.63;5015757;28;20080;-66
2022/06/12 01:19:13;;;;;;;5.95;1.92;;;;;;;22.74;43.48;102038.81;5015755;28;20022;-67
2022/06/12 01:22:01;;;;;;;4.93;2.20;;;;;;;22.71;43.86;102041.06;5015630;28;20394;-66
2022/06/12 01:24:49;;;;;;;8.27;2.20;;;;;;;22.69;44.14;102040.38;4999072;28;20028;-66
2022/06/12 01:27:39;;;;;;;9.13;2.47;;;;;;;22.70;44.48;102044.84;5015044;28;20080;-66
2022/06/12 01:30:10;;;;;;;6.75;3.83;;;;;;;22.72;44.89;102045.50;5016693;28;20527;-65
2022/06/12 01:33:06;;;;;;;6.93;2.97;;;;;;;22.79;43.94;102043.72;5016145;28;20395;-67
2022/06/12 01:35:50;;;;;;;5.63;2.45;;;;;;;22.88;44.20;102042.66;5016546;28;20026;-65
2022/06/12 01:38:31;;;;;;;8.82;2.88;;;;;;;22.95;45.24;102040.91;5016483;28;20025;-67
2022/06/12 01:41:07;;;;;;;3.88;2.22;;;;;;;23.02;45.00;102042.75;5015323;28;20395;-66
2022/06/12 01:43:42;;;;;;;9.95;2.83;;;;;;;23.07;44.23;102045.78;5015458;28;20026;-66
2022/06/12 01:46:22;;;;;;;6.55;2.58;;;;;;;23.13;44.17;102044.22;5015395;28;20026;-66
2022/06/12 01:49:05;;;;;;;9.60;2.40;;;;;;;23.16;44.09;102032.91;5016088;28;20030;-66
2022/06/12 01:51:33;;;;;;;7.57;2.08;;;;;;;23.16;44.94;102032.91;5016275;28;20022;-66
2022/06/12 01:54:17;;;;;;;5.32;2.28;;;;;;;23.15;43.94;102026.59;5015993;28;20018;-66
2022/06/12 01:56:49;;;;;;;4.47;2.15;;;;;;;23.15;44.54;102031.19;5016355;28;20479;-66
2022/06/12 01:59:30;;;;;;;4.93;2.03;;;;;;;23.12;45.02;102023.38;5015957;28;20104;-66
2022/06/12 02:01:58;;;;;;;11.18;2.80;;;;;;;23.10;43.92;102028.16;5015973;28;20420;-66
2022/06/12 02:04:38;;;;;;;5.95;2.28;;;;;;;23.08;44.50;102030.25;5015720;28;20037;-67
2022/06/12 02:07:23;;;;;;;6.55;1.90;;;;;;;23.07;44.69;102028.53;5014654;28;20032;-67
2022/06/12 02:09:55;;;;;;;8.85;2.40;;;;;;;23.05;44.46;102027.88;5015569;28;20484;-67
2022/06/12 02:15:20;;;;;;;12.93;2.42;;;;;;;23.01;44.04;102029.25;5015509;28;19963;-67
2022/06/12 02:17:56;;;;;;;10.38;2.85;;;;;;;22.98;44.89;102015.94;5015454;28;20029;-66
2022/06/12 02:20:25;;;;;;;5.57;2.35;;;;;;;22.97;44.62;102019.72;5015505;28;20029;-66
2022/06/12 02:22:51;;;;;;;8.82;2.38;;;;;;;22.94;43.92;102020.94;5014670;28;20021;-67
2022/06/12 02:25:21;;;;;;;5.88;1.70;;;;;;;22.92;44.74;102019.44;5014101;28;20053;-67
2022/06/12 02:27:50;;;;;;;11.02;2.08;;;;;;;22.89;44.67;102019.78;5014154;28;20049;-67
2022/06/12 02:30:25;;;;;;;6.53;2.30;;;;;;;22.86;44.54;102020.13;5013984;28;20022;-67
2022/06/12 02:33:01;;;;;;;9.73;2.28;;;;;;;22.85;45.10;102012.97;5013657;28;20081;-66
2022/06/12 02:35:39;;;;;;;7.63;2.22;;;;;;;22.82;44.80;102016.06;5013859;28;20488;-66
2022/06/12 02:38:28;;;;;;;4.63;2.05;;;;;;;22.78;44.69;102018.28;5015192;28;20542;-66
2022/06/12 02:40:58;;;;;;;5.93;2.50;;;;;;;22.75;44.89;102023.28;5015061;28;20061;-67
2022/06/12 02:43:27;;;;;;;8.23;1.98;;;;;;;22.69;44.00;102024.00;5013678;28;20386;-67
2022/06/12 02:46:12;;;;;;;9.35;2.33;;;;;;;22.65;44.04;102014.44;5013693;28;20030;-66
2022/06/12 02:48:38;;;;;;;7.72;2.45;;;;;;;22.63;44.79;102022.78;5013812;28;20022;-67
2022/06/12 02:51:12;;;;;;;11.10;2.40;;;;;;;22.58;44.43;102022.47;5013736;28;20082;-66
2022/06/12 02:53:49;;;;;;;5.82;2.83;;;;;;;22.55;44.09;102020.09;5013714;28;20037;-66
2022/06/12 02:56:47;;;;;;;7.20;2.35;;;;;;;22.50;44.42;102015.16;5014097;28;20025;-65
2022/06/12 02:59:41;;;;;;;11.70;2.72;;;;;;;22.45;44.54;102023.03;5015083;28;20034;-67
2022/06/12 03:02:10;;;;;;;6.68;2.70;;;;;;;22.43;44.69;102016.91;5014040;28;20505;-67
2022/06/12 03:04:43;;;;;;;8.95;2.70;;;;;;;22.39;44.44;102023.75;5015010;28;20037;-67
2022/06/12 03:07:09;;;;;;;5.35;2.05;;;;;;;22.37;44.68;102017.63;5013766;28;20394;-67
2022/06/12 03:09:35;;;;;;;11.73;2.58;;;;;;;22.35;43.92;102014.22;5014349;28;20022;-67
2022/06/12 03:12:01;;;;;;;6.70;1.85;;;;;;;22.36;44.04;102017.81;5013330;28;20032;-67
2022/06/12 03:14:26;;;;;;;5.30;2.90;;;;;;;22.34;43.73;102020.69;5014637;28;20026;-66
2022/06/12 03:16:52;;;;;;;15.02;2.92;;;;;;;22.33;43.69;102024.47;5014662;28;20101;-67
2022/06/12 03:19:24;;;;;;;8.15;2.42;;;;;;;22.30;43.83;102030.28;5013072;28;20464;-67
2022/06/12 03:21:55;;;;;;;3.58;2.53;;;;;;;22.25;44.07;102021.75;5014226;28;20064;-67
2022/06/12 03:24:53;;;;;;;5.00;2.75;;;;;;;22.22;43.94;102022.09;5014045;28;20026;-67
2022/06/12 03:27:30;;;;;;;6.45;2.17;;;;;;;22.16;44.19;102030.16;5014374;28;20022;-67
2022/06/12 03:30:07;;;;;;;4.47;1.83;;;;;;;22.09;44.32;102032.72;5014174;28;20029;-66
2022/06/12 03:32:47;;;;;;;3.17;1.70;;;;;;;22.04;43.71;102040.59;5014448;28;20065;-67
2022/06/12 03:35:32;;;;;;;6.07;1.92;;;;;;;21.98;44.57;102038.56;5013128;28;20135;-66
2022/06/12 03:38:06;;;;;;;11.25;1.67;;;;;;;21.92;43.39;102045.56;5013345;28;20387;-67
2022/06/12 03:40:49;;;;;;;5.95;1.73;;;;;;;21.88;44.44;102046.09;5013186;28;20030;-67
2022/06/12 03:43:28;;;;;;;7.90;1.83;;;;;;;21.84;44.26;102053.72;5012862;28;20061;-67
2022/06/12 03:46:02;;;;;;;4.45;1.42;;;;;;;21.82;43.43;102052.19;5012883;28;20084;-67
2022/06/12 03:48:39;;;;;;;5.88;2.22;;;;;;;21.80;44.00;102048.78;5014507;28;20030;-66
2022/06/12 03:51:14;;;;;;;3.83;1.83;;;;;;;21.77;43.99;102051.88;5013011;28;20487;-66
2022/06/12 03:53:46;;;;;;;11.63;2.17;;;;;;;21.76;43.86;102050.16;5013228;28;20025;-67
2022/06/12 03:59:08;;;;;;;3.08;1.77;;;;;;;21.73;43.37;102050.50;5014090;28;20458;-66
2022/06/12 04:01:34;;;;;;;6.78;1.77;;;;;;;21.73;44.33;102047.75;5012897;28;20049;-66
2022/06/12 04:04:00;;;;;;;4.40;1.30;;;;;;;21.73;43.48;102054.06;4996520;28;20040;-66
2022/06/12 04:06:28;;;;;;;4.88;1.88;;;;;;;21.73;43.42;102047.75;5012947;28;20476;-66
2022/06/12 04:09:06;;;;;;;7.75;1.30;;;;;;;21.74;44.25;102050.34;5013111;28;20026;-66
2022/06/12 04:11:34;;;;;;;4.95;1.98;;;;;;;21.75;43.61;102056.63;5013040;28;20032;-67
2022/06/12 04:14:01;;;;;;;3.60;1.48;;;;;;;21.76;43.53;102047.44;5012923;28;20030;-67
2022/06/12 04:16:40;;;;;;;3.03;1.90;;;;;;;21.80;43.80;102054.25;5013167;28;20048;-67
2022/06/12 04:19:10;;;;;;;4.72;1.33;;;;;;;21.83;44.14;102049.28;5012729;28;20033;-67
2022/06/12 04:21:41;;;;;;;4.03;1.27;;;;;;;21.89;43.88;102055.97;5012301;28;20030;-67
2022/06/12 04:24:15;;;;;;;5.97;1.37;;;;;;;21.96;43.96;102054.25;4995927;28;20022;-67
2022/06/12 04:26:53;;;;;;;6.30;1.38;;;;;;;22.04;42.92;102059.69;5012636;28;20105;-67
2022/06/12 04:29:26;;;;;;;2.60;1.23;;;;;;;22.12;43.64;102054.22;4996279;28;20026;-67
2022/06/12 04:31:55;;;;;;;6.75;1.95;;;;;;;22.20;42.79;102050.59;5013758;28;20029;-67
2022/06/12 04:34:30;;;;;;;3.15;1.02;;;;;;;22.29;42.67;102053.16;5013991;28;20463;-67
2022/06/12 04:36:58;;;;;;;2.58;1.30;;;;;;;22.34;43.40;102045.28;5013855;28;20033;-66
2022/06/12 04:39:27;;;;;;;7.53;1.58;;;;;;;22.44;43.28;102056.84;5012506;28;20021;-67
2022/06/12 04:41:53;;;;;;;8.00;1.20;;;;;;;22.53;42.55;102063.97;5013698;28;20368;-67
2022/06/12 04:44:19;;;;;;;2.17;1.20;;;;;;;22.64;43.29;102059.19;5012615;28;20025;-67
2022/06/12 04:46:47;;;;;;;3.33;1.30;;;;;;;22.76;42.96;102060.47;5016109;28;20033;-67
2022/06/12 04:49:16;;;;;;;3.10;1.30;;;;;;;22.87;42.92;102065.53;5017116;28;20018;-67
2022/06/12 04:51:42;;;;;;;2.65;1.05;;;;;;;22.98;42.55;102065.13;5015989;28;20018;-66
2022/06/12 04:54:07;;;;;;;6.65;1.75;;;;;;;23.11;42.47;102062.69;4999708;28;20030;-66
2022/06/12 04:56:34;;;;;;;4.72;1.33;;;;;;;23.22;42.27;102059.53;5017152;28;20072;-66
2022/06/12 04:59:00;;;;;;;8.20;1.20;;;;;;;23.34;41.56;102057.22;5017280;28;20026;-66
2022/06/12 05:01:26;;;;;;;5.07;1.60;;;;;;;23.44;41.70;102050.50;5016888;28;20050;-66
2022/06/12 05:03:52;;;;;;;2.80;1.52;;;;;;;23.57;42.18;102048.00;5017409;28;20475;-66
2022/06/12 05:06:18;;;;;;;2.05;0.95;;;;;;;23.68;42.03;102049.44;5016697;28;20026;-67
2022/06/12 05:08:46;;;;;;;3.22;1.50;;;;;;;23.77;41.42;102051.91;5016683;28;20029;-67
2022/06/12 05:11:11;;;;;;;5.53;1.00;;;;;;;23.87;41.37;102042.59;5016838;28;20025;-66
2022/06/12 05:13:37;;;;;;;5.07;1.40;;;;;;;23.99;41.04;102047.41;5016435;28;20537;-67
2022/06/12 05:16:02;;;;;;;4.97;1.35;;;;;;;24.09;41.30;102047.16;5016665;28;20105;-67
2022/06/12 05:18:28;;;;;;;3.15;0.93;;;;;;;24.22;40.71;102047.38;5016849;28;20058;-67
2022/06/12 05:20:54;;;;;;;6.32;1.42;;;;;;;24.35;41.23;102047.56;5016745;28;20083;-67
2022/06/12 05:23:20;;;;;;;3.45;1.00;;;;;;;24.48;40.53;102050.50;5016568;28;20021;-67
2022/06/12 05:25:46;;;;;;;2.67;0.90;;;;;;;24.56;40.77;102047.66;5016232;28;20026;-67
2022/06/12 05:28:13;;;;;;;5.43;1.13;;;;;;;24.63;40.49;102050.47;5016485;28;20113;-67
2022/06/12 05:30:39;;;;;;;4.55;1.05;;;;;;;24.71;40.27;102048.47;5016507;28;20022;-67
2022/06/12 05:33:04;;;;;;;3.05;1.00;;;;;;;24.85;39.76;102055.84;5016184;28;20076;-66
2022/06/12 05:35:31;;;;;;;5.20;0.95;;;;;;;24.98;39.87;102049.69;5016453;28;20471;-67
2022/06/12 05:37:58;;;;;;;4.63;1.00;;;;;;;25.18;40.06;102063.59;5016125;28;20018;-66
2022/06/12 05:40:27;;;;;;;5.10;1.65;;;;;;;25.34;39.94;102061.47;5016012;28;20072;-67
2022/06/12 05:42:53;;;;;;;4.65;1.40;;;;;;;25.51;39.53;102063.97;5015843;28;20032;-67
2022/06/12 05:45:21;;;;;;;7.60;1.08;;;;;;;25.64;39.05;102062.19;5016117;28;20108;-67
2022/06/12 05:47:52;;;;;;;6.85;1.15;;;;;;;25.81;39.16;102069.09;5014822;28;20022;-66
2022/06/12 05:50:20;;;;;;;6.60;1.00;;;;;;;25.96;38.60;102061.59;5014431;28;20054;-66
2022/06/12 05:52:45;;;;;;;11.05;1.85;;;;;;;26.13;38.48;102067.63;5015900;28;20411;-67
2022/06/12 05:55:11;;;;;;;7.68;1.75;;;;;;;26.30;38.49;102057.22;5015920;28;20029;-66
2022/06/12 05:57:36;;;;;;;7.03;1.33;;;;;;;26.46;38.44;102057.75;5014668;28;20030;-66
2022/06/12 06:00:04;;;;;;;2.90;0.98;;;;;;;26.60;38.09;102053.16;5015348;28;20415;-67
2022/06/12 06:02:30;;;;;;;5.82;1.48;;;;;;;26.71;37.80;102055.31;5015182;28;20030;-66
2022/06/12 06:04:55;;;;;;;4.63;1.10;;;;;;;26.85;37.85;102054.34;5015624;28;20091;-66
2022/06/12 06:07:21;;;;;;;3.53;1.20;;;;;;;27.00;37.14;102059.66;5015166;28;20021;-67
2022/06/12 06:09:46;;;;;;;2.63;0.85;;;;;;;27.13;37.94;102055.06;5015223;28;20032;-66
2022/06/12 06:12:11;;;;;;;2.38;0.88;;;;;;;27.30;36.85;102060.19;5015206;28;20101;-67
2022/06/12 06:14:36;;;;;;;4.75;1.23;;;;;;;27.43;37.18;102054.72;5014004;28;20045;-67
2022/06/12 06:17:02;;;;;;;6.53;1.05;;;;;;;27.58;36.47;102058.13;5015229;28;20387;-67
2022/06/12 06:19:27;;;;;;;4.57;1.17;;;;;;;27.69;36.00;102061.09;5014989;28;20029;-66
2022/06/12 06:21:53;;;;;;;3.85;0.90;;;;;;;27.81;36.07;102063.19;5015284;28;20025;-66
2022/06/12 06:24:18;;;;;;;3.50;1.00;;;;;;;27.96;36.31;102061.09;5015298;28;20018;-67
2022/06/12 06:26:44;;;;;;;3.28;0.93;;;;;;;28.10;36.02;102058.13;5015580;28;20475;-66
2022/06/12 06:29:10;;;;;;;3.83;1.27;;;;;;;28.22;35.89;102067.44;5015288;28;20025;-67
2022/06/12 06:31:36;;;;;;;7.70;1.30;;;;;;;28.37;36.08;102063.56;5015534;28;20041;-66
2022/06/12 06:34:02;;;;;;;6.68;1.70;;;;;;;28.50;35.74;102064.41;5015526;28;20045;-66
2022/06/12 06:36:27;;;;;;;5.65;1.27;;;;;;;28.63;34.65;102060.78;5015144;28;20061;-66
2022/06/12 06:38:54;;;;;;;8.20;1.30;;;;;;;28.78;35.04;102059.44;5015898;28;20026;-66
2022/06/12 06:41:21;;;;;;;7.20;1.60;;;;;;;28.92;34.85;102068.50;5015735;28;20026;-66
2022/06/12 06:46:30;;;;;;;3.13;1.05;;;;;;;29.21;34.19;102065.16;5014471;28;20080;-66
2022/06/12 06:48:55;;;;;;;6.13;1.10;;;;;;;29.35;33.65;102075.06;5015173;28;20030;-66
2022/06/12 06:51:21;;;;;;;5.15;1.30;;;;;;;29.51;33.75;102076.44;5014894;28;20506;-67
2022/06/12 06:53:46;;;;;;;4.97;1.70;;;;;;;29.69;34.21;102070.16;5015065;28;20034;-67
2022/06/12 06:56:12;;;;;;;3.13;1.00;;;;;;;29.84;33.21;102073.47;5014488;28;20065;-66
2022/06/12 06:58:37;;;;;;;8.65;1.25;;;;;;;29.97;33.65;102071.44;5015192;28;20021;-67
2022/06/12 07:01:04;;;;;;;6.80;1.20;;;;;;;30.11;33.27;102074.91;5014581;28;20053;-67
2022/06/12 07:03:30;;;;;;;3.63;1.02;;;;;;;30.26;32.66;102069.88;5014737;28;20029;-66
2022/06/12 07:05:56;;;;;;;3.28;0.90;;;;;;;30.41;32.96;102073.13;5014602;28;20033;-66
2022/06/12 07:08:24;;;;;;;5.68;1.58;;;;;;;30.55;32.72;102077.44;5013939;28;20040;-66
2022/06/12 07:10:50;;;;;;;6.60;1.90;;;;;;;30.71;32.43;102069.59;5014339;28;20026;-65
2022/06/12 07:13:16;;;;;;;7.03;1.42;;;;;;;30.79;32.46;102060.97;5014364;28;20026;-66
2022/06/12 07:15:42;;;;;;;10.85;1.83;;;;;;;30.79;32.25;102066.50;5014399;28;20361;-67
2022/06/12 07:18:08;;;;;;;6.90;1.35;;;;;;;30.86;31.89;102067.25;5014398;28;20030;-66
2022/06/12 07:20:37;;;;;;;4.60;1.23;;;;;;;30.96;31.88;102064.84;5014498;28;20036;-66
2022/06/12 07:23:04;;;;;;;8.60;1.27;;;;;;;31.05;31.98;102066.16;5014322;28;20113;-66
2022/06/12 07:25:32;;;;;;;1.52;0.68;;;;;;;31.10;31.22;102063.56;5016387;28;20026;-65
2022/06/12 07:27:57;;;;;;;7.38;1.58;;;;;;;31.21;31.31;102065.53;5016998;28;20066;-66
2022/06/12 07:30:23;;;;;;;6.85;1.73;;;;;;;31.29;31.42;102062.44;5013772;28;20021;-67
2022/06/12 07:32:50;;;;;;;7.80;1.83;;;;;;;31.37;31.46;102070.41;5014066;28;20033;-66
2022/06/12 07:35:16;;;;;;;6.32;1.10;;;;;;;31.53;30.89;102064.19;5014144;28;20053;-67
2022/06/12 07:37:42;;;;;;;4.43;2.17;;;;;;;31.75;31.31;102069.16;5014258;28;20029;-67
2022/06/12 07:40:12;;;;;;;5.80;1.02;;;;;;;31.93;31.10;102069.94;5012898;28;20022;-67
2022/06/12 07:42:38;;;;;;;4.03;1.30;;;;;;;32.10;30.73;102081.19;5012851;28;20029;-65
2022/06/12 07:45:04;;;;;;;5.45;2.00;;;;;;;32.23;30.66;102083.69;5014140;28;20034;-67
2022/06/12 07:47:29;;;;;;;5.82;1.23;;;;;;;32.40;31.00;102070.78;5014117;28;20073;-68
2022/06/12 07:49:55;;;;;;;8.00;1.48;;;;;;;32.56;30.77;102075.59;5013767;28;20022;-66
2022/06/12 07:52:20;;;;;;;7.38;1.33;;;;;;;32.71;30.07;102078.72;5014265;28;20021;-67
2022/06/12 07:54:46;;;;;;;5.93;1.50;;;;;;;32.83;29.46;102067.59;5013877;28;20022;-66
2022/06/12 07:57:11;;;;;;;6.13;2.47;;;;;;;32.97;29.90;102068.13;5013900;28;20033;-67
2022/06/12 07:59:36;;;;;;;3.05;1.27;;;;;;;33.07;29.83;102071.13;5014157;28;20065;-66
2022/06/12 08:02:03;;;;;;;7.10;1.45;;;;;;;33.13;29.72;102064.59;5014014;28;20025;-66
2022/06/12 08:04:29;;;;;;;8.48;1.55;;;;;;;33.15;29.65;102076.28;5014176;28;20026;-67
2022/06/12 08:06:55;;;;;;;5.03;1.17;;;;;;;33.26;29.50;102070.69;5013893;28;20426;-67
2022/06/12 08:09:21;;;;;;;6.43;1.40;;;;;;;33.38;30.03;102073.41;5013787;28;20079;-67
2022/06/12 08:11:48;;;;;;;8.55;1.45;;;;;;;33.49;29.29;102058.59;5013742;28;20030;-67
2022/06/12 08:14:15;;;;;;;6.45;1.88;;;;;;;33.56;28.95;102070.38;5013816;28;20033;-67
2022/06/12 08:16:41;;;;;;;12.23;1.60;;;;;;;33.63;30.26;102067.47;5013977;28;20057;-67
2022/06/12 08:20:24;;;;;;;6.53;1.70;;;;;;;33.73;29.64;102071.25;5013796;28;20021;-67
2022/06/12 08:21:52;;;;;;;5.55;1.48;;;;;;;33.87;28.87;102060.63;5017599;28;20398;-66
2022/06/12 08:24:17;;;;;;;8.80;1.58;;;;;;;33.96;28.69;102065.53;5017730;28;20033;-67
2022/06/12 08:26:42;;;;;;;9.60;1.98;;;;;;;34.02;28.93;102057.25;5016548;28;20177;-67
2022/06/12 08:29:10;;;;;;;6.47;1.42;;;;;;;34.09;29.64;102057.97;5017473;28;20037;-65
2022/06/12 08:31:41;;;;;;;4.95;1.25;;;;;;;34.22;28.64;102063.16;5017434;28;20033;-66
2022/06/12 08:34:26;;;;;;;8.68;1.30;;;;;;;34.41;29.35;102061.75;5017662;28;20044;-66
2022/06/12 08:36:55;;;;;;;10.23;1.65;;;;;;;34.57;28.47;102049.75;5017133;28;20410;-67
2022/06/12 08:39:21;;;;;;;9.35;2.05;;;;;;;34.71;29.04;102048.25;5017343;28;20080;-66
2022/06/12 08:42:15;;;;;;;4.50;1.33;;;;;;;34.81;28.09;102053.97;5017405;28;20022;-65
2022/06/12 08:44:53;;;;;;;5.70;1.42;;;;;;;34.92;28.99;102053.00;5014135;28;20038;-67
2022/06/12 08:47:45;;;;;;;9.52;1.65;;;;;;;35.03;28.94;102043.66;5017389;28;20029;-67
2022/06/12 08:50:28;;;;;;;11.15;1.67;;;;;;;35.15;28.02;102039.88;5017219;28;20022;-67
2022/06/12 08:52:57;;;;;;;4.82;1.73;;;;;;;35.21;27.87;102045.22;5015943;28;20042;-67
2022/06/12 08:55:38;;;;;;;11.00;1.67;;;;;;;35.23;28.39;102036.63;5017428;28;20030;-67
2022/06/12 08:58:23;;;;;;;9.32;1.95;;;;;;;35.29;28.01;102035.56;5015830;28;20399;-67
2022/06/12 09:00:49;;;;;;;9.60;1.55;;;;;;;35.40;28.60;102037.34;5015951;28;20057;-67
2022/06/12 09:03:20;;;;;;;4.28;1.60;;;;;;;35.57;28.38;102032.50;5015610;28;20395;-67
2022/06/12 09:06:04;;;;;;;8.48;1.90;;;;;;;35.77;28.36;102032.66;5016176;28;20387;-66
2022/06/12 09:08:44;;;;;;;8.75;1.67;;;;;;;35.98;28.29;102019.69;5016645;28;20365;-67
2022/06/12 09:11:25;;;;;;;6.47;1.80;;;;;;;36.13;27.68;102020.66;5015521;28;20022;-67
2022/06/12 09:14:01;;;;;;;7.60;1.60;;;;;;;36.22;27.38;102019.03;5016916;28;20032;-67
2022/06/12 09:17:10;;;;;;;13.70;1.80;;;;;;;36.28;27.48;102019.06;5016725;28;20076;-68
2022/06/12 09:20:08;;;;;;;9.90;2.05;;;;;;;36.42;27.55;102012.72;4981454;28;20042;-65
2022/06/12 09:22:55;;;;;;;10.98;2.00;;;;;;;36.57;27.60;102010.03;5015864;28;20025;-66
2022/06/12 09:25:26;;;;;;;6.93;1.80;;;;;;;36.73;27.51;102013.69;5016872;28;20060;-66
2022/06/12 09:28:06;;;;;;;9.30;2.15;;;;;;;36.84;26.90;102009.81;5015997;28;20476;-66
2022/06/12 09:30:47;;;;;;;8.10;1.70;;;;;;;36.89;27.04;102012.63;5015629;28;20448;-67
2022/06/12 09:33:25;;;;;;;4.18;1.55;;;;;;;36.91;26.96;102006.78;5017153;28;20097;-67
2022/06/12 09:36:25;;;;;;;9.57;1.60;;;;;;;36.97;27.20;102000.94;5016811;28;20431;-67
2022/06/12 09:38:59;;;;;;;5.07;1.65;;;;;;;37.15;27.04;102010.75;5017524;28;20014;-68
2022/06/12 09:41:45;;;;;;;16.42;1.60;;;;;;;37.20;26.91;102003.19;5016442;28;20030;-67
2022/06/12 09:44:24;;;;;;;10.40;2.30;;;;;;;37.22;26.42;102000.97;5015749;28;20553;-67
2022/06/12 09:47:12;;;;;;;7.97;1.23;;;;;;;37.31;26.81;101999.28;5015255;28;20107;-67
2022/06/12 09:49:49;;;;;;;6.88;1.65;;;;;;;37.54;25.81;102009.13;5015420;28;20399;-66
2022/06/12 09:52:22;;;;;;;9.68;1.95;;;;;;;37.49;26.40;102000.72;5016858;28;20045;-67
2022/06/12 09:54:50;;;;;;;;;;;;;;;36.90;27.26;102000.34;5015449;28;20542;-67
2022/06/12 09:57:34;;;;;;;6.00;1.55;;;;;;;36.64;27.13;102005.00;5016758;28;20011;-67
2022/06/12 10:00:28;;;;;;;2.50;1.30;;;;;;;36.24;27.40;101992.81;5014522;28;20046;-67
2022/06/12 10:03:06;;;;;;;9.85;1.80;;;;;;;35.83;27.58;101997.25;5015482;28;20070;-66
2022/06/12 10:05:38;;;;;;;6.15;1.42;;;;;;;35.35;27.87;102006.63;5015950;28;20034;-66
2022/06/12 10:08:09;;;;;;;6.47;1.63;;;;;;;34.97;28.91;102000.09;5014964;28;20036;-67
2022/06/12 10:10:50;;;;;;;5.97;1.80;;;;;;;34.67;28.12;101999.78;5015718;28;20120;-67
2022/06/12 10:13:19;;;;;;;7.90;1.63;;;;;;;35.35;27.55;102001.03;5014617;28;20036;-67
2022/06/12 10:15:48;;;;;;;6.00;1.45;;;;;;;35.59;26.96;101991.25;5015935;28;20479;-66
2022/06/12 10:18:22;;;;;;;9.43;2.35;;;;;;;36.48;26.26;101999.59;5014834;28;20095;-68
2022/06/12 10:20:54;;;;;;;6.20;2.00;;;;;;;37.30;25.70;102000.41;5014325;28;20029;-67
2022/06/12 10:23:20;;;;;;;8.68;2.85;;;;;;;37.56;26.18;101995.69;5015591;28;20049;-68
2022/06/12 10:25:56;;;;;;;5.90;1.10;;;;;;;36.89;26.21;101984.66;5015595;28;20034;-68
2022/06/12 10:28:59;;;;;;;6.95;2.00;;;;;;;36.14;27.06;101980.47;5015636;28;20037;-68
2022/06/12 10:31:24;;;;;;;;;;;;;;;36.88;26.08;101985.78;5015975;28;20022;-67
2022/06/12 10:33:57;;;;;;;6.03;1.95;;;;;;;36.71;26.53;101982.41;5015456;28;19916;-67
2022/06/12 10:36:28;;;;;;;5.80;1.25;;;;;;;36.32;26.14;101979.19;5015300;28;20042;-67
2022/06/12 10:39:13;;;;;;;8.40;1.77;;;;;;;35.77;27.40;101988.03;5015409;28;20026;-67
2022/06/12 10:42:03;;;;;;;4.10;2.13;;;;;;;36.52;26.26;101984.00;5015238;28;20026;-67
2022/06/12 10:44:54;;;;;;;15.93;4.15;;;;;;;37.44;25.22;101981.13;4992630;28;20145;-67
2022/06/12 10:47:25;;;;;;;5.72;1.95;;;;;;;38.07;25.36;101973.22;5014199;28;20032;-67
2022/06/12 10:50:06;;;;;;;6.22;1.63;;;;;;;37.90;25.25;101979.16;5014548;28;20093;-67
2022/06/12 10:52:31;;;;;;;6.25;2.03;;;;;;;37.94;24.84;101976.63;5015733;28;20034;-67
2022/06/12 10:54:57;;;;;;;5.53;1.25;;;;;;;38.32;25.33;101978.72;5015242;28;20033;-67
2022/06/12 10:57:41;;;;;;;3.72;1.50;;;;;;;38.05;25.52;101973.53;5013422;28;20427;-67
2022/06/12 11:00:15;;;;;;;6.28;1.67;;;;;;;38.88;23.77;101970.91;5014120;28;20478;-66
2022/06/12 11:02:56;;;;;;;2.83;1.02;;;;;;;38.07;24.74;101976.03;5015109;28;20495;-67
2022/06/12 11:05:46;;;;;;;8.45;1.90;;;;;;;38.80;24.13;101971.53;5015280;28;20029;-67
2022/06/12 11:08:21;;;;;;;4.57;1.30;;;;;;;39.37;22.98;101963.25;5014260;28;20089;-67
2022/06/12 11:11:15;;;;;;;6.43;1.92;;;;;;;39.56;24.06;101957.78;5015384;28;20068;-67
2022/06/12 11:14:08;;;;;;;5.90;1.65;;;;;;;40.15;23.18;101960.22;5010580;28;20038;-67
2022/06/12 11:16:44;;;;;;;4.63;1.35;;;;;;;40.46;22.36;101955.88;5015316;28;20026;-67
2022/06/12 11:19:36;;;;;;;7.90;1.50;;;;;;;40.50;23.14;101956.16;5014986;28;20018;-68
2022/06/12 11:22:18;;;;;;;4.95;1.42;;;;;;;40.25;23.19;101950.84;5015094;28;20034;-67
2022/06/12 11:24:51;;;;;;;;;;;;;;;39.82;23.45;101955.53;5014567;28;20075;-67
2022/06/12 11:27:19;;;;;;;;;;;;;;;39.65;24.11;101955.16;5015257;28;19909;-67
2022/06/12 11:29:48;;;;;;;5.85;1.55;;;;;;;40.27;23.05;101943.78;5015075;28;19921;-67
2022/06/12 11:32:31;;;;;;;8.18;1.42;;;;;;;40.65;22.90;101948.34;5015325;28;20037;-66
2022/06/12 11:35:52;;;;;;;5.00;1.60;;;;;;;40.90;22.87;101937.84;5015252;28;20037;-66
2022/06/12 11:38:17;;;;;;;4.32;1.27;;;;;;;39.78;23.65;101937.63;4992958;28;20030;-66
2022/06/12 11:41:05;;;;;;;5.90;1.60;;;;;;;38.86;23.41;101937.56;4993069;28;20035;-67
2022/06/12 11:43:41;;;;;;;6.28;1.38;;;;;;;38.19;24.28;101940.16;4992685;28;20038;-67
2022/06/12 11:46:46;;;;;;;7.40;1.33;;;;;;;37.62;24.49;101935.81;4992840;28;20053;-67
2022/06/12 11:49:42;;;;;;;5.50;1.48;;;;;;;38.52;23.90;101935.81;4992444;28;20030;-67
2022/06/12 11:52:07;;;;;;;5.85;1.50;;;;;;;39.16;23.41;101924.44;4992347;28;20042;-66
2022/06/12 11:54:51;;;;;;;4.37;1.33;;;;;;;39.62;22.91;101922.88;4992960;28;20113;-67
2022/06/12 11:57:33;;;;;;;5.65;1.45;;;;;;;40.17;23.00;101915.84;4996232;28;20280;-67
2022/06/12 12:00:09;;;;;;;6.95;1.70;;;;;;;40.57;22.28;101906.84;4996296;28;20452;-67
2022/06/12 12:02:45;;;;;;;4.22;1.25;;;;;;;40.88;21.64;101906.38;4996343;28;20041;-67